Flugplatz Hamm-Lippewiesen

Für EDLH sind keine METAR/TAF Berichte vorhanden.
Es werden die Flugwettermeldungen vom Flugplatz Dortmund in 23 km Entfernung angezeigt.

Bericht für EDLW

vom 28.10. um 08:20 UTC

Wind 11 kt aus 220°

Sichtweite 10 km oder mehr

aufgelockert bewölkt in 1900 ft

Temperatur 12.0°C

Taupunkt 9.0°C

Luftfeuchtigkeit 82%

Luftdruck 1007 hPa

EDLW 280820Z 22011KT 190V250 9999 SCT019 12/09 Q1007

Prognose für EDLW

vom 28.10. um 05:00 UTC

Zwischen 06:00 UTC und 09:00 UTC

Wind 9 kt aus 210°

Sichtweite 10 km oder mehr

aufgelockert bewölkt in 3000 ft


Zwischen 06:00 UTC und 09:00 UTC zeitweise mit einer Wahrscheinlichkeit von 30%

Wind 15 kt aus 220°

Regenschauer

aufgebrochene Bewölkung in 1400 ft


Zwischen 09:00 und 11:00 UTC übergehend zu

Wind 15 kt aus 220° in Böen 25 kt

Sichtweite 10 km oder mehr

aufgelockert bewölkt in 3000 ft


Zwischen 11:00 UTC und 16:00 UTC zeitweise

Wind 20 kt aus 220° in Böen 30 kt


Zwischen 18:00 und 21:00 UTC übergehend zu

Wind 12 kt aus 220°

Sichtweite 10 km oder mehr

aufgelockert bewölkt in 3000 ft


Zwischen 21:00 UTC und 05:00 UTC zeitweise

Wind 15 kt aus 240° in Böen 30 kt

Regenschauer

aufgebrochene Bewölkung in 2000 ft

TAF EDLW 280500Z 2806/2906 21009KT 9999 SCT030 PROB30 TEMPO 2806/2809 22015KT SHRA BKN014TCU BECMG 2809/2811 22015G25KT TEMPO 2811/2816 22020G30KT BECMG 2818/2821 22012KT TEMPO 2821/2905 24015G30KT SHRA BKN020CB
Impressum